Time;durP1;ratioP1;P1;durP2;ratioP2;P2;SDS_P1;SDS_P2;PMS_P1;PMS_P2;Temp;Humidity;BMP_temperature;BMP_pressure;BME280_temperature;BME280_humidity;BME280_pressure;Samples;Min_cycle;Max_cycle;Signal;HPM_P1;HPM_P2
2022/09/26 00:01:42;;;;;;;6.57;3.43;;;11.30;99.90;;;;;;5072461;28;20658;-58
2022/09/26 00:04:17;;;;;;;8.00;3.60;;;11.30;99.90;;;;;;5058476;28;20199;-58
2022/09/26 00:06:53;;;;;;;7.43;3.70;;;11.30;99.90;;;;;;5063724;28;20266;-58
2022/09/26 00:09:22;;;;;;;7.80;3.73;;;11.30;99.90;;;;;;5060109;28;20196;-58
2022/09/26 00:11:51;;;;;;;7.80;4.03;;;11.20;99.90;;;;;;5060757;28;20231;-58
2022/09/26 00:14:22;;;;;;;5.47;3.60;;;11.20;99.90;;;;;;5060621;28;20199;-58
2022/09/26 00:16:51;;;;;;;9.43;4.33;;;11.20;99.90;;;;;;5061233;28;20690;-58
2022/09/26 00:19:22;;;;;;;6.63;4.27;;;11.20;99.90;;;;;;5069640;28;20187;-59
2022/09/26 00:21:50;;;;;;;5.70;3.57;;;11.20;99.90;;;;;;5060757;28;20220;-59
2022/09/26 00:24:19;;;;;;;6.30;3.90;;;11.20;99.90;;;;;;5067642;28;20203;-58
2022/09/26 00:26:47;;;;;;;7.30;3.77;;;11.20;99.90;;;;;;5068287;28;20547;-58
2022/09/26 00:29:15;;;;;;;5.23;3.60;;;11.20;99.90;;;;;;5065014;28;20200;-58
2022/09/26 00:31:46;;;;;;;4.23;3.47;;;11.20;99.90;;;;;;5061087;28;20196;-59
2022/09/26 00:34:16;;;;;;;6.17;3.80;;;11.20;99.90;;;;;;5059978;28;20856;-59
2022/09/26 00:36:46;;;;;;;6.50;4.00;;;11.20;99.90;;;;;;5068091;28;20224;-58
2022/09/26 00:39:15;;;;;;;6.77;3.70;;;11.20;99.90;;;;;;5068241;28;20219;-58
2022/09/26 00:41:45;;;;;;;4.93;3.70;;;11.20;99.90;;;;;;5069285;28;20199;-58
2022/09/26 00:44:41;;;;;;;13.93;4.10;;;11.20;99.90;;;;;;5054454;28;20207;-58
2022/09/26 00:47:23;;;;;;;3.90;3.60;;;11.20;99.90;;;;;;5062256;28;20203;-58
2022/09/26 00:49:56;;;;;;;7.03;3.67;;;11.20;99.90;;;;;;5068285;28;20196;-58
2022/09/26 00:52:31;;;;;;;11.30;3.67;;;11.10;99.90;;;;;;5065072;28;20197;-58
2022/09/26 00:55:02;;;;;;;6.80;3.70;;;11.10;99.90;;;;;;5061458;28;20682;-59
2022/09/26 00:57:35;;;;;;;4.53;3.53;;;11.10;99.90;;;;;;5062838;28;20207;-58
2022/09/26 01:00:08;;;;;;;7.73;3.20;;;11.20;99.90;;;;;;5062650;28;20227;-59
2022/09/26 01:02:37;;;;;;;3.63;3.20;;;11.20;99.90;;;;;;5064147;28;20223;-58
2022/09/26 01:05:08;;;;;;;3.40;3.10;;;11.20;99.90;;;;;;5060960;28;20200;-59
2022/09/26 01:07:38;;;;;;;7.70;3.03;;;11.20;99.90;;;;;;5061274;28;20547;-58
2022/09/26 01:10:07;;;;;;;7.27;2.87;;;11.20;99.90;;;;;;5064040;28;20192;-58
2022/09/26 01:12:37;;;;;;;4.10;2.90;;;11.20;99.90;;;;;;5068979;28;20659;-58
2022/09/26 01:15:07;;;;;;;3.17;2.60;;;11.20;99.90;;;;;;5056786;28;20219;-59
2022/09/26 01:17:37;;;;;;;3.87;3.07;;;11.30;99.90;;;;;;5061117;28;20232;-59
2022/09/26 01:20:23;;;;;;;4.83;2.80;;;11.30;99.90;;;;;;5061553;28;20193;-58
2022/09/26 01:23:26;;;;;;;2.93;2.70;;;11.40;99.90;;;;;;5059284;28;20216;-58
2022/09/26 01:26:27;;;;;;;8.50;3.20;;;11.40;99.90;;;;;;5054292;28;20208;-59
2022/09/26 01:29:31;;;;;;;5.13;2.87;;;11.40;99.90;;;;;;5037031;28;20204;-58
2022/09/26 01:35:05;;;;;;;2.87;2.60;;;11.30;99.90;;;;;;5059155;28;20196;-58
2022/09/26 01:37:41;;;;;;;4.57;2.80;;;11.40;99.90;;;;;;5052144;28;20202;-59
2022/09/26 01:40:17;;;;;;;6.70;2.53;;;11.30;99.90;;;;;;5060386;28;20228;-59
2022/09/26 01:42:57;;;;;;;6.30;2.60;;;11.40;99.90;;;;;;5058961;28;20199;-59
2022/09/26 01:45:30;;;;;;;3.87;2.67;;;11.30;99.90;;;;;;5067485;28;20207;-58
2022/09/26 01:48:08;;;;;;;4.97;3.07;;;11.40;99.90;;;;;;5067687;28;20236;-59
2022/09/26 01:50:42;;;;;;;8.70;3.30;;;11.40;99.90;;;;;;5073442;28;20200;-58
2022/09/26 01:53:15;;;;;;;6.30;3.20;;;11.40;99.90;;;;;;5062363;28;20199;-58
2022/09/26 01:55:48;;;;;;;4.53;3.30;;;11.30;99.90;;;;;;5068527;28;20273;-58
2022/09/26 01:58:22;;;;;;;6.10;3.60;;;11.30;99.90;;;;;;5059988;28;20200;-58
2022/09/26 02:00:52;;;;;;;8.17;3.90;;;11.40;99.90;;;;;;5063345;28;20195;-59
2022/09/26 02:03:27;;;;;;;5.63;4.10;;;11.40;99.90;;;;;;5066009;28;20290;-58
2022/09/26 02:05:59;;;;;;;9.90;4.93;;;11.40;99.90;;;;;;5062171;28;20199;-58
2022/09/26 02:08:32;;;;;;;7.83;5.67;;;11.30;99.90;;;;;;5060142;28;20189;-58
2022/09/26 02:11:06;;;;;;;10.40;5.50;;;11.30;99.90;;;;;;5067532;28;20220;-58
2022/09/26 02:13:41;;;;;;;11.90;5.67;;;11.40;99.90;;;;;;5064923;28;20191;-58
2022/09/26 02:16:15;;;;;;;14.90;6.33;;;11.40;99.90;;;;;;5061018;28;20215;-58
2022/09/26 02:18:50;;;;;;;7.83;5.87;;;11.30;99.90;;;;;;5049140;28;20251;-58
2022/09/26 02:21:22;;;;;;;10.83;5.53;;;11.30;99.90;;;;;;5059788;28;20242;-57
2022/09/26 02:23:52;;;;;;;8.90;5.40;;;11.30;99.90;;;;;;5064063;28;20195;-58
2022/09/26 02:26:21;;;;;;;6.87;5.43;;;11.30;99.90;;;;;;5071208;28;20212;-58
2022/09/26 02:28:49;;;;;;;9.00;5.77;;;11.30;99.90;;;;;;5065435;28;20199;-58
2022/09/26 02:31:22;;;;;;;11.27;5.40;;;11.30;99.90;;;;;;5062548;28;20215;-58
2022/09/26 02:33:53;;;;;;;7.50;5.47;;;11.20;99.90;;;;;;5066648;28;20522;-59
2022/09/26 02:36:22;;;;;;;5.73;5.13;;;11.30;99.90;;;;;;5061686;28;20219;-58
2022/09/26 02:38:53;;;;;;;9.17;5.00;;;11.20;99.90;;;;;;5058129;28;20200;-58
2022/09/26 02:41:32;;;;;;;7.60;4.70;;;11.30;99.90;;;;;;5100386;28;20187;-58
2022/09/26 02:44:17;;;;;;;6.50;4.47;;;11.30;99.90;;;;;;5069462;28;20211;-58
2022/09/26 02:47:10;;;;;;;9.73;4.77;;;11.30;99.90;;;;;;5064170;28;20334;-59
2022/09/26 02:50:01;;;;;;;7.07;4.90;;;11.30;99.90;;;;;;5069447;28;20805;-58
2022/09/26 02:52:42;;;;;;;6.00;4.10;;;11.30;99.90;;;;;;5069267;28;20287;-58
2022/09/26 02:55:19;;;;;;;5.50;4.27;;;11.30;99.90;;;;;;5064007;28;20199;-58
2022/09/26 02:58:02;;;;;;;12.20;4.57;;;11.30;99.90;;;;;;5067167;28;20928;-59
2022/09/26 03:00:39;;;;;;;7.77;3.93;;;11.20;99.90;;;;;;5077332;28;20232;-58
2022/09/26 03:03:18;;;;;;;8.13;4.23;;;11.20;99.90;;;;;;5068567;28;20730;-58
2022/09/26 03:05:51;;;;;;;6.47;3.90;;;11.20;99.90;;;;;;5069986;28;20205;-58
2022/09/26 03:08:24;;;;;;;7.50;3.60;;;11.20;99.90;;;;;;5065464;28;20200;-58
2022/09/26 03:10:53;;;;;;;9.17;4.10;;;11.20;99.90;;;;;;5067191;28;20570;-58
2022/09/26 03:13:23;;;;;;;3.87;3.47;;;11.20;99.90;;;;;;5064584;28;20192;-58
2022/09/26 03:15:56;;;;;;;6.40;3.73;;;11.30;99.90;;;;;;5069218;28;20210;-58
2022/09/26 03:18:28;;;;;;;8.63;3.80;;;11.30;99.90;;;;;;5067724;28;20643;-59
2022/09/26 03:20:58;;;;;;;7.70;3.30;;;11.30;99.90;;;;;;5071451;28;20207;-58
2022/09/26 03:23:28;;;;;;;5.07;3.10;;;11.20;99.90;;;;;;5064420;28;20196;-58
2022/09/26 03:26:01;;;;;;;5.40;3.57;;;11.20;99.90;;;;;;5068023;28;20555;-58
2022/09/26 03:28:30;;;;;;;11.10;3.53;;;11.20;99.90;;;;;;5059522;28;20211;-58
2022/09/26 03:31:06;;;;;;;10.07;4.00;;;11.20;99.90;;;;;;5068032;28;20573;-59
2022/09/26 03:33:34;;;;;;;4.30;3.90;;;11.30;99.90;;;;;;5072484;28;20675;-58
2022/09/26 03:36:08;;;;;;;5.03;3.87;;;11.20;99.90;;;;;;5062567;28;20717;-58
2022/09/26 03:38:36;;;;;;;8.30;4.40;;;11.20;99.90;;;;;;5064389;28;20283;-58
2022/09/26 03:41:08;;;;;;;10.33;4.07;;;11.20;99.90;;;;;;5064394;28;20283;-58
2022/09/26 03:43:37;;;;;;;7.80;3.70;;;11.20;99.90;;;;;;5070568;28;20200;-59
2022/09/26 03:46:07;;;;;;;10.27;3.60;;;11.20;99.90;;;;;;5067826;28;20203;-58
2022/09/26 03:48:39;;;;;;;6.30;3.50;;;11.20;99.90;;;;;;5101921;28;20200;-59
2022/09/26 03:51:10;;;;;;;7.23;3.60;;;11.20;99.90;;;;;;5068912;28;20193;-58
2022/09/26 03:53:41;;;;;;;10.37;3.50;;;11.20;99.90;;;;;;5069472;28;20203;-58
2022/09/26 03:56:12;;;;;;;9.27;3.53;;;11.20;99.90;;;;;;5070296;28;20627;-58
2022/09/26 03:58:40;;;;;;;8.00;3.30;;;11.20;99.90;;;;;;5072511;28;20232;-58
2022/09/26 04:01:12;;;;;;;6.27;3.43;;;11.20;99.90;;;;;;5066810;28;20253;-58
2022/09/26 04:03:43;;;;;;;4.40;3.40;;;11.20;99.90;;;;;;5065022;28;20706;-58
2022/09/26 04:06:20;;;;;;;4.60;3.47;;;11.30;99.90;;;;;;5064423;28;20196;-58
2022/09/26 04:08:50;;;;;;;3.30;3.10;;;11.30;99.90;;;;;;5069000;28;20209;-58
2022/09/26 04:11:21;;;;;;;6.73;3.43;;;11.30;99.90;;;;;;5070714;28;20204;-58
2022/09/26 04:13:51;;;;;;;5.80;3.40;;;11.30;99.90;;;;;;5065697;28;21027;-58
2022/09/26 04:16:22;;;;;;;4.07;3.00;;;11.20;99.90;;;;;;5069591;28;20238;-58
2022/09/26 04:18:58;;;;;;;4.10;3.40;;;11.30;99.90;;;;;;5061409;28;20200;-58
2022/09/26 04:21:28;;;;;;;3.23;2.87;;;11.20;99.90;;;;;;5056398;28;20602;-58
2022/09/26 04:23:56;;;;;;;3.60;3.23;;;11.30;99.90;;;;;;5065316;28;20771;-59
2022/09/26 04:26:25;;;;;;;4.10;2.90;;;11.30;99.90;;;;;;5069569;28;20206;-58
2022/09/26 04:28:56;;;;;;;6.23;3.13;;;11.30;99.90;;;;;;5102826;28;20200;-58
2022/09/26 04:31:26;;;;;;;5.13;2.90;;;11.30;99.90;;;;;;5069251;28;20932;-58
2022/09/26 04:33:56;;;;;;;5.97;3.20;;;11.40;99.90;;;;;;5066638;28;20263;-58
2022/09/26 04:36:25;;;;;;;4.33;3.50;;;11.40;99.90;;;;;;5067220;28;20756;-58
2022/09/26 04:38:59;;;;;;;4.30;3.57;;;11.30;99.90;;;;;;5070882;28;20582;-59
2022/09/26 04:41:28;;;;;;;4.03;3.63;;;11.30;99.90;;;;;;5067907;28;20198;-58
2022/09/26 04:43:58;;;;;;;4.57;3.20;;;11.30;99.90;;;;;;5070331;28;20203;-58
2022/09/26 04:46:28;;;;;;;3.77;2.97;;;11.40;99.90;;;;;;5066830;28;20184;-58
2022/09/26 04:49:00;;;;;;;4.17;2.80;;;11.40;99.90;;;;;;5057164;28;20201;-58
2022/09/26 04:51:31;;;;;;;4.87;3.00;;;11.40;99.90;;;;;;5058810;28;20234;-58
2022/09/26 04:54:01;;;;;;;5.23;3.13;;;11.40;99.90;;;;;;5068667;28;20202;-58
2022/09/26 04:56:30;;;;;;;3.53;3.07;;;11.40;99.90;;;;;;5061013;28;20201;-58
2022/09/26 04:58:59;;;;;;;5.03;3.20;;;11.40;99.90;;;;;;5060562;28;20240;-58
2022/09/26 05:01:28;;;;;;;5.23;2.90;;;11.40;99.90;;;;;;5065281;28;20218;-58
2022/09/26 05:03:57;;;;;;;3.27;2.80;;;11.40;99.90;;;;;;5071134;28;20667;-59
2022/09/26 05:06:25;;;;;;;5.43;2.93;;;11.40;99.90;;;;;;5066530;28;20222;-58
2022/09/26 05:08:54;;;;;;;4.03;2.90;;;11.40;99.90;;;;;;5066783;28;20199;-58
2022/09/26 05:11:26;;;;;;;5.43;3.00;;;11.50;99.90;;;;;;5064856;28;20188;-58
2022/09/26 05:13:56;;;;;;;5.57;3.00;;;11.50;99.90;;;;;;5066239;28;20203;-59
2022/09/26 05:16:27;;;;;;;6.00;3.07;;;11.40;99.90;;;;;;5058123;28;20193;-59
2022/09/26 05:18:56;;;;;;;8.83;3.00;;;11.50;99.90;;;;;;5073748;28;20211;-59
2022/09/26 05:21:24;;;;;;;5.17;2.40;;;11.50;99.90;;;;;;5065692;28;20212;-59
2022/09/26 05:26:42;;;;;;;2.97;2.63;;;11.40;99.90;;;;;;5057976;28;20207;-59
2022/09/26 05:29:11;;;;;;;6.47;2.90;;;11.50;99.90;;;;;;5061407;28;20706;-59
2022/09/26 05:31:40;;;;;;;3.73;2.53;;;11.50;99.90;;;;;;5062258;28;20191;-59
2022/09/26 05:34:10;;;;;;;3.97;2.80;;;11.50;99.90;;;;;;5065049;28;20251;-59
2022/09/26 05:36:45;;;;;;;2.90;2.63;;;11.50;99.90;;;;;;5056148;28;20204;-58
2022/09/26 05:42:01;;;;;;;4.13;2.60;;;11.50;99.90;;;;;;5057465;28;20207;-59
2022/09/26 05:44:29;;;;;;;3.67;2.47;;;11.40;99.90;;;;;;5066009;28;20231;-59
2022/09/26 05:46:58;;;;;;;6.60;2.80;;;11.50;99.90;;;;;;5064763;28;20200;-58
2022/09/26 05:49:26;;;;;;;2.63;2.43;;;11.50;99.90;;;;;;5061981;28;20263;-59
2022/09/26 05:51:56;;;;;;;2.97;2.63;;;11.50;99.90;;;;;;5090897;28;20646;-58
2022/09/26 05:54:24;;;;;;;4.20;2.50;;;11.50;99.90;;;;;;5059376;28;20211;-58
2022/09/26 05:56:52;;;;;;;3.60;2.60;;;11.50;99.90;;;;;;5064626;28;20203;-59
2022/09/26 05:59:22;;;;;;;4.23;2.70;;;11.50;99.90;;;;;;5055591;28;20724;-59
2022/09/26 06:01:53;;;;;;;4.53;2.70;;;11.60;99.90;;;;;;5074217;28;20196;-59
2022/09/26 06:04:22;;;;;;;4.07;2.43;;;11.60;99.90;;;;;;5073646;28;20524;-59
2022/09/26 06:06:51;;;;;;;7.03;2.57;;;11.60;99.90;;;;;;5059529;28;20188;-58
2022/09/26 06:09:19;;;;;;;2.70;2.50;;;11.60;99.90;;;;;;5059717;28;20346;-58
2022/09/26 06:11:47;;;;;;;3.33;2.27;;;11.70;99.90;;;;;;5068299;28;20210;-58
2022/09/26 06:14:16;;;;;;;2.60;2.40;;;11.70;99.90;;;;;;5066895;28;20562;-59
2022/09/26 06:16:45;;;;;;;5.97;2.40;;;11.70;99.90;;;;;;5090840;28;20928;-59
2022/09/26 06:19:14;;;;;;;5.80;2.37;;;11.60;99.90;;;;;;5066217;28;20218;-59
2022/09/26 06:21:49;;;;;;;3.17;2.10;;;11.60;99.90;;;;;;5066561;28;22291;-58
2022/09/26 06:24:19;;;;;;;3.77;2.23;;;11.70;99.90;;;;;;5059737;28;20200;-58
2022/09/26 06:26:47;;;;;;;4.23;2.30;;;11.70;99.90;;;;;;5056031;28;20200;-59
2022/09/26 06:29:15;;;;;;;6.30;2.30;;;11.70;99.90;;;;;;5062936;28;20230;-58
2022/09/26 06:31:45;;;;;;;3.50;2.20;;;11.70;99.90;;;;;;5057437;28;20205;-59
2022/09/26 06:34:14;;;;;;;4.77;2.60;;;11.70;99.90;;;;;;5062090;28;20196;-59
2022/09/26 06:36:43;;;;;;;3.80;2.40;;;11.80;99.90;;;;;;5065619;28;20204;-58
2022/09/26 06:39:12;;;;;;;5.87;2.57;;;11.80;99.90;;;;;;5061759;28;20204;-59
2022/09/26 06:41:40;;;;;;;5.90;2.60;;;11.90;99.90;;;;;;5053564;28;20196;-58
2022/09/26 06:44:09;;;;;;;4.83;2.47;;;11.90;99.90;;;;;;5061587;28;20197;-59
2022/09/26 06:46:38;;;;;;;4.07;2.60;;;11.90;99.90;;;;;;5063886;28;20276;-59
2022/09/26 06:49:07;;;;;;;2.77;2.57;;;11.80;99.90;;;;;;5064315;28;20191;-59
2022/09/26 06:51:38;;;;;;;3.70;2.70;;;11.80;99.90;;;;;;5065975;28;20204;-58
2022/09/26 06:54:06;;;;;;;2.70;2.57;;;11.90;99.90;;;;;;5064385;28;20211;-59
2022/09/26 06:56:34;;;;;;;2.50;2.30;;;11.90;99.90;;;;;;5067757;28;20203;-58
2022/09/26 06:59:03;;;;;;;11.10;2.77;;;11.90;99.90;;;;;;5060960;28;20228;-59
2022/09/26 07:01:31;;;;;;;5.17;2.60;;;11.90;99.90;;;;;;5060745;28;20204;-59
2022/09/26 07:04:00;;;;;;;2.90;2.30;;;12.00;99.90;;;;;;5068479;28;20216;-58
2022/09/26 07:06:29;;;;;;;2.90;2.10;;;12.00;99.90;;;;;;5059412;28;20192;-59
2022/09/26 07:08:58;;;;;;;7.13;2.80;;;12.00;99.90;;;;;;5071438;28;20201;-59
2022/09/26 07:11:34;;;;;;;6.57;2.60;;;12.00;99.90;;;;;;5054126;28;20667;-59
2022/09/26 07:14:23;;;;;;;2.47;2.37;;;12.00;99.90;;;;;;5055522;28;20200;-58
2022/09/26 07:16:52;;;;;;;5.73;2.70;;;12.10;99.90;;;;;;5063489;28;20757;-58
2022/09/26 07:19:20;;;;;;;4.67;2.87;;;12.10;99.90;;;;;;5065716;28;20220;-58
2022/09/26 07:21:50;;;;;;;2.57;2.37;;;12.10;99.90;;;;;;5060737;28;20227;-59
2022/09/26 07:24:18;;;;;;;3.03;2.50;;;12.20;99.90;;;;;;5064198;28;20204;-57
2022/09/26 07:26:47;;;;;;;6.03;2.83;;;12.20;99.90;;;;;;5064910;28;20207;-59
2022/09/26 07:29:15;;;;;;;5.27;2.70;;;12.20;99.90;;;;;;5062364;28;20199;-59
2022/09/26 07:31:44;;;;;;;4.40;2.50;;;12.30;99.90;;;;;;5063863;28;20206;-59
2022/09/26 07:34:13;;;;;;;7.93;2.40;;;12.40;99.90;;;;;;5063972;28;20235;-58
2022/09/26 07:36:46;;;;;;;6.63;2.70;;;12.40;99.90;;;;;;5073048;28;20846;-58
2022/09/26 07:39:16;;;;;;;7.20;2.83;;;12.40;99.90;;;;;;5063681;28;20204;-58
2022/09/26 07:41:45;;;;;;;4.50;2.70;;;12.40;99.90;;;;;;5054358;28;20203;-58
2022/09/26 07:44:14;;;;;;;5.07;2.40;;;12.40;99.90;;;;;;5062011;28;20199;-58
2022/09/26 07:52:34;;;;;;;8.60;2.40;;;12.50;99.90;;;;;;5064944;28;20235;-58
2022/09/26 07:55:04;;;;;;;3.97;2.30;;;12.50;99.90;;;;;;5067353;28;20192;-58
2022/09/26 07:57:34;;;;;;;4.10;2.57;;;12.50;99.90;;;;;;5068905;28;20701;-58
2022/09/26 08:00:04;;;;;;;9.73;2.70;;;12.50;99.90;;;;;;5063835;28;20228;-59
2022/09/26 08:02:33;;;;;;;7.80;2.50;;;12.50;99.90;;;;;;5064606;28;20211;-59
2022/09/26 08:05:03;;;;;;;4.60;2.70;;;12.60;99.90;;;;;;5069413;28;20200;-58
2022/09/26 08:07:34;;;;;;;6.50;2.50;;;12.60;99.90;;;;;;5064056;28;20200;-58
2022/09/26 08:10:05;;;;;;;3.73;2.60;;;12.60;99.90;;;;;;5060165;28;20184;-58
2022/09/26 08:12:38;;;;;;;4.10;3.07;;;12.50;99.90;;;;;;5063664;28;20203;-57
2022/09/26 08:15:08;;;;;;;7.23;3.20;;;12.50;99.90;;;;;;5065984;28;20192;-58
2022/09/26 08:17:37;;;;;;;4.03;2.30;;;12.60;99.90;;;;;;5079237;28;20200;-58
2022/09/26 08:20:06;;;;;;;9.83;3.20;;;12.60;99.90;;;;;;5069692;28;20761;-58
2022/09/26 08:22:34;;;;;;;10.90;2.50;;;12.60;99.90;;;;;;5063300;28;20206;-58
2022/09/26 08:25:06;;;;;;;8.57;2.67;;;12.60;99.90;;;;;;5065295;28;20200;-58
2022/09/26 08:27:34;;;;;;;9.83;2.73;;;12.60;99.90;;;;;;5068267;28;20196;-58
2022/09/26 08:30:03;;;;;;;5.10;2.73;;;12.70;99.90;;;;;;5063316;28;20192;-58
2022/09/26 08:32:32;;;;;;;3.97;2.40;;;12.70;99.90;;;;;;5070831;28;20196;-58
2022/09/26 08:35:01;;;;;;;6.07;2.43;;;12.80;99.90;;;;;;5060172;28;20644;-58
2022/09/26 08:37:29;;;;;;;4.27;2.73;;;12.80;99.90;;;;;;5064818;28;20193;-57
2022/09/26 08:39:59;;;;;;;4.60;2.50;;;12.80;99.90;;;;;;5060003;28;20263;-58
2022/09/26 08:42:40;;;;;;;8.20;2.83;;;12.80;99.90;;;;;;5060222;28;20258;-58
2022/09/26 08:48:35;;;;;;;10.93;2.63;;;12.70;99.90;;;;;;5051926;28;20224;-57
2022/09/26 08:51:13;;;;;;;4.50;2.87;;;12.60;99.90;;;;;;5061702;28;20219;-57
2022/09/26 08:53:48;;;;;;;6.23;2.53;;;12.60;99.90;;;;;;5062321;28;20195;-58
2022/09/26 08:56:20;;;;;;;8.73;2.50;;;12.50;99.90;;;;;;5062394;28;20200;-58
2022/09/26 08:58:53;;;;;;;3.40;2.80;;;12.50;99.90;;;;;;5064986;28;20385;-57
2022/09/26 09:01:29;;;;;;;6.53;2.83;;;12.50;99.90;;;;;;5064619;28;20191;-58
2022/09/26 09:04:05;;;;;;;7.00;3.13;;;12.50;99.90;;;;;;5063699;28;20748;-57
2022/09/26 09:06:34;;;;;;;7.30;2.83;;;12.50;99.90;;;;;;5064394;28;20608;-58
2022/09/26 09:09:04;;;;;;;7.47;2.97;;;12.50;99.90;;;;;;5058591;28;20793;-58
2022/09/26 09:11:56;;;;;;;7.80;3.30;;;12.50;99.90;;;;;;5061848;28;20222;-57
2022/09/26 09:14:45;;;;;;;3.60;2.57;;;12.50;99.90;;;;;;5064074;28;20885;-58
2022/09/26 09:17:43;;;;;;;7.17;2.77;;;12.50;99.90;;;;;;5062800;28;20219;-58
2022/09/26 09:20:18;;;;;;;5.70;3.20;;;12.50;99.90;;;;;;5071372;28;20219;-58
2022/09/26 09:23:04;;;;;;;6.00;2.80;;;12.50;99.90;;;;;;5064183;28;20204;-58
2022/09/26 09:25:39;;;;;;;5.90;2.70;;;12.50;99.90;;;;;;5069781;28;20648;-58
2022/09/26 09:28:21;;;;;;;3.63;2.70;;;12.40;99.90;;;;;;5059397;28;20341;-58
2022/09/26 09:30:57;;;;;;;6.07;3.20;;;12.40;99.90;;;;;;5064651;28;20636;-58
2022/09/26 09:33:31;;;;;;;6.03;3.00;;;12.40;99.90;;;;;;5063447;28;20228;-58
2022/09/26 09:36:05;;;;;;;4.30;2.57;;;12.40;99.90;;;;;;5063762;28;20686;-58
2022/09/26 09:38:37;;;;;;;5.20;2.73;;;12.40;99.90;;;;;;5066507;28;20204;-58
2022/09/26 09:41:10;;;;;;;4.43;2.73;;;12.40;99.90;;;;;;5061522;28;20663;-58
2022/09/26 09:43:43;;;;;;;4.57;3.10;;;12.40;99.90;;;;;;5065600;28;20223;-59
2022/09/26 09:46:21;;;;;;;4.53;2.80;;;12.50;99.90;;;;;;5062948;28;20196;-59
2022/09/26 09:48:53;;;;;;;5.50;3.30;;;12.50;99.90;;;;;;5067814;28;20195;-58
2022/09/26 09:51:31;;;;;;;6.70;3.03;;;12.50;99.90;;;;;;5056571;28;20198;-59
2022/09/26 09:54:35;;;;;;;10.30;3.07;;;12.50;99.90;;;;;;5063591;28;20192;-58
2022/09/26 09:57:32;;;;;;;6.30;3.20;;;12.50;99.90;;;;;;5062959;28;20291;-58
2022/09/26 10:00:11;;;;;;;9.70;3.30;;;12.50;99.90;;;;;;5077877;28;20236;-58
2022/09/26 10:02:50;;;;;;;7.90;3.47;;;12.50;99.90;;;;;;5059353;28;20260;-58
2022/09/26 10:05:30;;;;;;;7.03;3.33;;;12.40;99.90;;;;;;5050595;28;20196;-58
2022/09/26 10:07:59;;;;;;;5.00;3.40;;;12.40;99.90;;;;;;5058041;28;20226;-58
2022/09/26 10:10:37;;;;;;;5.13;3.07;;;12.40;99.90;;;;;;5063498;28;20198;-58
2022/09/26 10:13:07;;;;;;;3.80;2.93;;;12.30;99.90;;;;;;5058477;28;20196;-59
2022/09/26 10:15:40;;;;;;;10.93;3.73;;;12.30;99.90;;;;;;5069521;28;20215;-59
2022/09/26 10:18:17;;;;;;;4.30;3.60;;;12.30;99.90;;;;;;5062906;28;20283;-59
2022/09/26 10:20:56;;;;;;;5.20;3.03;;;12.30;99.90;;;;;;5069418;28;20203;-59
2022/09/26 10:23:31;;;;;;;8.70;4.00;;;12.20;99.90;;;;;;5075243;28;20207;-58
2022/09/26 10:26:02;;;;;;;4.53;3.93;;;12.20;99.90;;;;;;5064793;28;20220;-59
2022/09/26 10:28:36;;;;;;;5.57;3.53;;;12.10;99.90;;;;;;5063913;28;20203;-59
2022/09/26 10:31:09;;;;;;;5.20;3.90;;;12.10;99.90;;;;;;5066412;28;20662;-58
2022/09/26 10:33:45;;;;;;;8.60;3.70;;;12.10;99.90;;;;;;5059704;28;20204;-58
2022/09/26 10:36:19;;;;;;;4.67;3.80;;;12.00;99.90;;;;;;5062199;28;20718;-59
2022/09/26 10:41:57;;;;;;;7.60;4.20;;;12.00;99.90;;;;;;5021990;28;20217;-59
2022/09/26 10:44:28;;;;;;;7.43;3.87;;;12.00;99.90;;;;;;5008564;28;20204;-58
2022/09/26 10:47:01;;;;;;;9.83;3.83;;;12.00;99.90;;;;;;5042368;28;20714;-59
2022/09/26 10:49:39;;;;;;;8.83;4.07;;;12.10;99.90;;;;;;5051777;28;20572;-59
2022/09/26 10:52:14;;;;;;;9.67;4.60;;;12.10;99.90;;;;;;5064542;28;20196;-59
2022/09/26 10:54:54;;;;;;;7.60;4.17;;;12.10;99.90;;;;;;5078645;28;20198;-59
2022/09/26 10:57:27;;;;;;;4.27;3.77;;;12.10;99.90;;;;;;5058651;28;20282;-59
2022/09/26 11:00:00;;;;;;;4.33;4.03;;;12.00;99.90;;;;;;5054966;28;20235;-59
2022/09/26 11:02:28;;;;;;;5.37;3.87;;;12.00;99.90;;;;;;5065189;28;20192;-60
2022/09/26 11:07:48;;;;;;;5.90;4.37;;;12.00;99.90;;;;;;5066300;28;20224;-58
2022/09/26 11:10:24;;;;;;;6.97;4.30;;;12.00;99.90;;;;;;5062386;28;20199;-58
2022/09/26 11:13:02;;;;;;;7.40;4.40;;;12.10;99.90;;;;;;5066713;28;20249;-58
2022/09/26 11:15:32;;;;;;;5.07;4.30;;;12.10;99.90;;;;;;5062449;28;20196;-59
2022/09/26 11:18:02;;;;;;;6.40;4.60;;;12.00;99.90;;;;;;5069868;28;20192;-58
2022/09/26 11:20:41;;;;;;;12.63;4.40;;;12.00;99.90;;;;;;5062098;28;20231;-59
2022/09/26 11:23:31;;;;;;;5.70;4.20;;;12.10;99.90;;;;;;5068675;28;20192;-59
2022/09/26 11:26:10;;;;;;;5.47;4.30;;;12.10;99.90;;;;;;5067445;28;20559;-59
2022/09/26 11:28:43;;;;;;;4.70;4.30;;;12.20;99.90;;;;;;5066336;28;20542;-59
2022/09/26 11:31:21;;;;;;;5.57;3.93;;;12.30;99.90;;;;;;5074649;28;20203;-59
2022/09/26 11:33:50;;;;;;;5.87;4.00;;;12.20;99.90;;;;;;5058845;28;20199;-59
2022/09/26 11:36:51;;;;;;;4.03;3.77;;;12.10;99.90;;;;;;5062968;28;20215;-58
2022/09/26 11:39:42;;;;;;;4.53;3.80;;;12.10;99.90;;;;;;5069870;28;20204;-59
2022/09/26 11:42:27;;;;;;;4.57;3.63;;;12.20;99.90;;;;;;5058495;28;20226;-58
2022/09/26 11:44:58;;;;;;;6.40;3.70;;;12.10;99.90;;;;;;5067471;28;20200;-59
2022/09/26 11:48:05;;;;;;;5.43;3.77;;;12.20;99.90;;;;;;5068980;28;20522;-59
2022/09/26 11:50:43;;;;;;;4.07;3.70;;;12.20;99.90;;;;;;5069936;28;20206;-59
2022/09/26 11:53:33;;;;;;;3.70;3.50;;;12.20;99.90;;;;;;5066616;28;20200;-59
2022/09/26 11:56:23;;;;;;;6.13;3.47;;;12.20;99.90;;;;;;5064772;28;20200;-59
2022/09/26 11:59:02;;;;;;;3.27;3.07;;;12.20;99.90;;;;;;5055287;28;20703;-59
2022/09/26 12:01:40;;;;;;;6.50;3.33;;;12.30;99.90;;;;;;5065405;28;20551;-59
2022/09/26 12:04:26;;;;;;;6.10;3.40;;;12.30;99.90;;;;;;5070987;28;20196;-59
2022/09/26 12:07:00;;;;;;;6.67;3.00;;;12.40;99.90;;;;;;5068532;28;20191;-58
2022/09/26 12:10:03;;;;;;;4.07;3.10;;;12.40;99.90;;;;;;5068168;28;20689;-59
2022/09/26 12:12:41;;;;;;;2.87;2.63;;;12.50;99.90;;;;;;5068493;28;20189;-59
2022/09/26 12:15:22;;;;;;;2.50;2.40;;;12.50;99.90;;;;;;5060999;28;20224;-59
2022/09/26 12:18:01;;;;;;;2.60;2.40;;;12.40;99.90;;;;;;5065337;28;20184;-58
2022/09/26 12:20:38;;;;;;;2.63;2.10;;;12.50;99.90;;;;;;5053535;28;20207;-59
2022/09/26 12:23:16;;;;;;;2.73;2.23;;;12.50;99.90;;;;;;5090820;28;20206;-58
2022/09/26 12:26:08;;;;;;;2.47;2.30;;;12.50;99.90;;;;;;5062499;28;20207;-58
2022/09/26 12:29:08;;;;;;;2.40;2.30;;;12.50;99.90;;;;;;5059227;28;20199;-59
2022/09/26 12:31:53;;;;;;;3.10;2.70;;;12.40;99.90;;;;;;5062412;28;20196;-58
2022/09/26 12:34:36;;;;;;;2.53;2.43;;;12.50;99.90;;;;;;5065861;28;20243;-58
2022/09/26 12:37:14;;;;;;;2.80;2.60;;;12.50;99.90;;;;;;5066864;28;20216;-58
2022/09/26 12:39:56;;;;;;;3.17;2.90;;;12.40;99.90;;;;;;5069203;28;20820;-58
2022/09/26 12:42:47;;;;;;;2.90;2.70;;;12.40;99.90;;;;;;5057755;28;20207;-58
2022/09/26 12:45:40;;;;;;;3.47;2.73;;;12.50;99.90;;;;;;5052685;28;20212;-59
2022/09/26 12:48:33;;;;;;;2.50;2.40;;;12.50;99.90;;;;;;5059797;28;20193;-58
2022/09/26 12:51:18;;;;;;;2.30;2.20;;;12.50;99.90;;;;;;5102597;28;20204;-59
2022/09/26 12:53:59;;;;;;;2.30;2.20;;;12.50;99.90;;;;;;5065750;28;20196;-59
2022/09/26 12:56:45;;;;;;;2.80;2.67;;;12.50;99.90;;;;;;5058300;28;20200;-58
2022/09/26 12:59:33;;;;;;;2.40;2.30;;;12.50;99.90;;;;;;5096227;28;20228;-58
2022/09/26 13:02:32;;;;;;;2.33;2.17;;;12.50;99.90;;;;;;5086123;28;20226;-59
2022/09/26 13:05:26;;;;;;;2.70;2.50;;;12.50;99.90;;;;;;5070415;28;20323;-59
2022/09/26 13:08:04;;;;;;;4.53;2.53;;;12.50;99.90;;;;;;5064808;28;20231;-59
2022/09/26 13:10:41;;;;;;;2.60;2.30;;;12.50;99.90;;;;;;5059182;28;20543;-59
2022/09/26 13:13:33;;;;;;;2.50;2.37;;;12.50;99.90;;;;;;5061736;28;20751;-58
2022/09/26 13:16:17;;;;;;;2.40;2.30;;;12.50;99.90;;;;;;5077849;28;20195;-59
2022/09/26 13:18:49;;;;;;;2.73;2.53;;;12.50;99.90;;;;;;5061450;28;20246;-59
2022/09/26 13:21:23;;;;;;;3.00;2.70;;;12.50;99.90;;;;;;5069188;28;20278;-58
2022/09/26 13:23:58;;;;;;;2.50;2.40;;;12.50;99.90;;;;;;5050781;28;20575;-58
2022/09/26 13:26:30;;;;;;;2.40;2.30;;;12.50;99.90;;;;;;5052325;28;20208;-58
2022/09/26 13:29:05;;;;;;;2.60;2.47;;;12.40;99.90;;;;;;5064501;28;20219;-58
2022/09/26 13:32:03;;;;;;;2.23;2.13;;;12.40;99.90;;;;;;5062232;28;20222;-58
2022/09/26 13:34:38;;;;;;;2.60;2.50;;;12.30;99.90;;;;;;5057338;28;20638;-58
2022/09/26 13:37:27;;;;;;;2.27;2.27;;;12.30;99.90;;;;;;5060647;28;20815;-58
2022/09/26 13:40:03;;;;;;;2.90;2.70;;;12.30;99.90;;;;;;5058541;28;20203;-59
2022/09/26 13:42:40;;;;;;;2.57;2.40;;;12.40;99.90;;;;;;5059964;28;20212;-60
2022/09/26 13:45:23;;;;;;;2.47;2.37;;;12.40;99.90;;;;;;5057792;28;20200;-58
2022/09/26 13:48:00;;;;;;;2.97;2.77;;;12.50;99.90;;;;;;5063478;28;20223;-59